sensor_id;sensor_type;location;lat;lon;timestamp;P1;durP1;ratioP1;P2;durP2;ratioP2
4365;SDS011;2196;47.422;9.656;2022-11-25T00:00:53;0.77;;;0.20;;
4365;SDS011;2196;47.422;9.656;2022-11-25T00:03:28;0.37;;;0.00;;
4365;SDS011;2196;47.422;9.656;2022-11-25T00:05:55;0.20;;;0.10;;
4365;SDS011;2196;47.422;9.656;2022-11-25T00:08:22;0.97;;;0.20;;
4365;SDS011;2196;47.422;9.656;2022-11-25T00:10:49;1.40;;;0.20;;
4365;SDS011;2196;47.422;9.656;2022-11-25T00:13:16;0.57;;;0.07;;
4365;SDS011;2196;47.422;9.656;2022-11-25T00:15:45;0.53;;;0.10;;
4365;SDS011;2196;47.422;9.656;2022-11-25T00:18:12;1.47;;;0.20;;
4365;SDS011;2196;47.422;9.656;2022-11-25T00:20:39;0.37;;;0.10;;
4365;SDS011;2196;47.422;9.656;2022-11-25T00:23:06;0.93;;;0.10;;
4365;SDS011;2196;47.422;9.656;2022-11-25T00:25:33;0.10;;;0.10;;
4365;SDS011;2196;47.422;9.656;2022-11-25T00:28:00;0.50;;;0.10;;
4365;SDS011;2196;47.422;9.656;2022-11-25T00:30:27;0.10;;;0.10;;
4365;SDS011;2196;47.422;9.656;2022-11-25T00:32:56;0.20;;;0.20;;
4365;SDS011;2196;47.422;9.656;2022-11-25T00:35:23;0.13;;;0.13;;
4365;SDS011;2196;47.422;9.656;2022-11-25T00:37:50;0.40;;;0.17;;
4365;SDS011;2196;47.422;9.656;2022-11-25T00:40:17;0.20;;;0.20;;
4365;SDS011;2196;47.422;9.656;2022-11-25T00:42:44;0.10;;;0.10;;
4365;SDS011;2196;47.422;9.656;2022-11-25T00:45:28;0.50;;;0.10;;
4365;SDS011;2196;47.422;9.656;2022-11-25T00:47:56;1.13;;;0.00;;
4365;SDS011;2196;47.422;9.656;2022-11-25T00:50:23;0.00;;;0.00;;
4365;SDS011;2196;47.422;9.656;2022-11-25T00:52:50;1.10;;;0.10;;
4365;SDS011;2196;47.422;9.656;2022-11-25T00:55:17;0.03;;;0.03;;
4365;SDS011;2196;47.422;9.656;2022-11-25T00:57:44;0.10;;;0.10;;
4365;SDS011;2196;47.422;9.656;2022-11-25T01:00:12;0.03;;;0.03;;
4365;SDS011;2196;47.422;9.656;2022-11-25T01:02:39;0.87;;;0.10;;
4365;SDS011;2196;47.422;9.656;2022-11-25T01:05:08;0.07;;;0.03;;
4365;SDS011;2196;47.422;9.656;2022-11-25T01:07:35;0.20;;;0.10;;
4365;SDS011;2196;47.422;9.656;2022-11-25T01:10:02;0.47;;;0.10;;
4365;SDS011;2196;47.422;9.656;2022-11-25T01:12:29;0.20;;;0.10;;
4365;SDS011;2196;47.422;9.656;2022-11-25T01:14:56;0.10;;;0.10;;
4365;SDS011;2196;47.422;9.656;2022-11-25T01:17:23;0.23;;;0.20;;
4365;SDS011;2196;47.422;9.656;2022-11-25T01:19:50;1.67;;;0.53;;
4365;SDS011;2196;47.422;9.656;2022-11-25T01:22:19;0.50;;;0.20;;
4365;SDS011;2196;47.422;9.656;2022-11-25T01:24:46;0.20;;;0.20;;
4365;SDS011;2196;47.422;9.656;2022-11-25T01:27:13;0.30;;;0.00;;
4365;SDS011;2196;47.422;9.656;2022-11-25T01:29:39;0.20;;;0.10;;
4365;SDS011;2196;47.422;9.656;2022-11-25T01:32:07;0.20;;;0.20;;
4365;SDS011;2196;47.422;9.656;2022-11-25T01:34:34;0.50;;;0.10;;
4365;SDS011;2196;47.422;9.656;2022-11-25T01:37:01;1.50;;;0.20;;
4365;SDS011;2196;47.422;9.656;2022-11-25T01:39:32;0.50;;;0.50;;
4365;SDS011;2196;47.422;9.656;2022-11-25T01:41:59;0.10;;;0.10;;
4365;SDS011;2196;47.422;9.656;2022-11-25T01:44:27;0.20;;;0.20;;
4365;SDS011;2196;47.422;9.656;2022-11-25T01:46:59;0.33;;;0.33;;
4365;SDS011;2196;47.422;9.656;2022-11-25T01:49:35;0.27;;;0.27;;
4365;SDS011;2196;47.422;9.656;2022-11-25T01:52:08;0.17;;;0.17;;
4365;SDS011;2196;47.422;9.656;2022-11-25T01:54:44;1.37;;;0.17;;
4365;SDS011;2196;47.422;9.656;2022-11-25T01:57:16;0.30;;;0.30;;
4365;SDS011;2196;47.422;9.656;2022-11-25T01:59:47;1.20;;;0.47;;
4365;SDS011;2196;47.422;9.656;2022-11-25T02:02:17;0.17;;;0.10;;
4365;SDS011;2196;47.422;9.656;2022-11-25T02:04:45;0.50;;;0.10;;
4365;SDS011;2196;47.422;9.656;2022-11-25T02:07:14;0.13;;;0.13;;
4365;SDS011;2196;47.422;9.656;2022-11-25T02:09:46;0.10;;;0.10;;
4365;SDS011;2196;47.422;9.656;2022-11-25T02:12:15;0.10;;;0.10;;
4365;SDS011;2196;47.422;9.656;2022-11-25T02:14:45;0.40;;;0.40;;
4365;SDS011;2196;47.422;9.656;2022-11-25T02:17:13;0.83;;;0.10;;
4365;SDS011;2196;47.422;9.656;2022-11-25T02:19:44;0.00;;;0.00;;
4365;SDS011;2196;47.422;9.656;2022-11-25T02:22:22;0.10;;;0.00;;
4365;SDS011;2196;47.422;9.656;2022-11-25T02:24:57;0.17;;;0.13;;
4365;SDS011;2196;47.422;9.656;2022-11-25T02:27:35;0.37;;;0.30;;
4365;SDS011;2196;47.422;9.656;2022-11-25T02:30:02;0.10;;;0.10;;
4365;SDS011;2196;47.422;9.656;2022-11-25T02:32:30;0.63;;;0.33;;
4365;SDS011;2196;47.422;9.656;2022-11-25T02:34:56;0.50;;;0.50;;
4365;SDS011;2196;47.422;9.656;2022-11-25T02:37:23;0.70;;;0.50;;
4365;SDS011;2196;47.422;9.656;2022-11-25T02:39:50;1.27;;;0.40;;
4365;SDS011;2196;47.422;9.656;2022-11-25T02:42:21;1.87;;;0.33;;
4365;SDS011;2196;47.422;9.656;2022-11-25T02:44:49;0.63;;;0.47;;
4365;SDS011;2196;47.422;9.656;2022-11-25T02:47:16;1.90;;;0.57;;
4365;SDS011;2196;47.422;9.656;2022-11-25T02:49:43;0.37;;;0.37;;
4365;SDS011;2196;47.422;9.656;2022-11-25T02:52:10;2.00;;;0.50;;
4365;SDS011;2196;47.422;9.656;2022-11-25T02:54:37;2.13;;;0.40;;
4365;SDS011;2196;47.422;9.656;2022-11-25T02:57:04;0.50;;;0.50;;
4365;SDS011;2196;47.422;9.656;2022-11-25T02:59:34;0.60;;;0.60;;
4365;SDS011;2196;47.422;9.656;2022-11-25T03:02:01;1.77;;;0.90;;
4365;SDS011;2196;47.422;9.656;2022-11-25T03:04:31;0.50;;;0.50;;
4365;SDS011;2196;47.422;9.656;2022-11-25T03:06:58;0.40;;;0.40;;
4365;SDS011;2196;47.422;9.656;2022-11-25T03:09:27;1.10;;;0.90;;
4365;SDS011;2196;47.422;9.656;2022-11-25T03:11:57;0.60;;;0.60;;
4365;SDS011;2196;47.422;9.656;2022-11-25T03:14:43;2.50;;;0.77;;
4365;SDS011;2196;47.422;9.656;2022-11-25T03:17:11;0.67;;;0.50;;
4365;SDS011;2196;47.422;9.656;2022-11-25T03:19:38;0.50;;;0.50;;
4365;SDS011;2196;47.422;9.656;2022-11-25T03:22:05;0.63;;;0.60;;
4365;SDS011;2196;47.422;9.656;2022-11-25T03:24:32;1.30;;;0.50;;
4365;SDS011;2196;47.422;9.656;2022-11-25T03:26:59;1.67;;;0.97;;
4365;SDS011;2196;47.422;9.656;2022-11-25T03:29:26;1.83;;;0.90;;
4365;SDS011;2196;47.422;9.656;2022-11-25T03:31:58;1.60;;;0.70;;
4365;SDS011;2196;47.422;9.656;2022-11-25T03:34:25;2.97;;;0.93;;
4365;SDS011;2196;47.422;9.656;2022-11-25T03:36:52;0.60;;;0.60;;
4365;SDS011;2196;47.422;9.656;2022-11-25T03:39:19;0.90;;;0.80;;
4365;SDS011;2196;47.422;9.656;2022-11-25T03:41:47;2.27;;;0.60;;
4365;SDS011;2196;47.422;9.656;2022-11-25T03:44:15;1.13;;;1.03;;
4365;SDS011;2196;47.422;9.656;2022-11-25T03:46:41;0.77;;;0.70;;
4365;SDS011;2196;47.422;9.656;2022-11-25T03:49:10;2.33;;;1.27;;
4365;SDS011;2196;47.422;9.656;2022-11-25T03:51:37;0.97;;;0.73;;
4365;SDS011;2196;47.422;9.656;2022-11-25T03:54:04;0.60;;;0.60;;
4365;SDS011;2196;47.422;9.656;2022-11-25T03:56:31;0.73;;;0.67;;
4365;SDS011;2196;47.422;9.656;2022-11-25T03:58:58;1.10;;;0.80;;
4365;SDS011;2196;47.422;9.656;2022-11-25T04:01:25;0.73;;;0.63;;
4365;SDS011;2196;47.422;9.656;2022-11-25T04:03:52;2.83;;;1.13;;
4365;SDS011;2196;47.422;9.656;2022-11-25T04:06:20;1.23;;;1.10;;
4365;SDS011;2196;47.422;9.656;2022-11-25T04:08:48;2.23;;;0.93;;
4365;SDS011;2196;47.422;9.656;2022-11-25T04:11:15;1.20;;;0.70;;
4365;SDS011;2196;47.422;9.656;2022-11-25T04:13:42;2.60;;;1.13;;
4365;SDS011;2196;47.422;9.656;2022-11-25T04:16:13;1.10;;;1.00;;
4365;SDS011;2196;47.422;9.656;2022-11-25T04:18:44;1.80;;;1.20;;
4365;SDS011;2196;47.422;9.656;2022-11-25T04:21:11;3.30;;;1.43;;
4365;SDS011;2196;47.422;9.656;2022-11-25T04:23:39;4.40;;;2.33;;
4365;SDS011;2196;47.422;9.656;2022-11-25T04:26:06;2.13;;;1.47;;
4365;SDS011;2196;47.422;9.656;2022-11-25T04:28:33;1.20;;;1.10;;
4365;SDS011;2196;47.422;9.656;2022-11-25T04:31:04;2.70;;;1.40;;
4365;SDS011;2196;47.422;9.656;2022-11-25T04:33:31;1.60;;;1.50;;
4365;SDS011;2196;47.422;9.656;2022-11-25T04:35:58;4.37;;;2.03;;
4365;SDS011;2196;47.422;9.656;2022-11-25T04:38:25;5.47;;;2.00;;
4365;SDS011;2196;47.422;9.656;2022-11-25T04:40:53;1.70;;;1.60;;
4365;SDS011;2196;47.422;9.656;2022-11-25T04:43:20;1.77;;;1.57;;
4365;SDS011;2196;47.422;9.656;2022-11-25T04:45:47;1.23;;;1.13;;
4365;SDS011;2196;47.422;9.656;2022-11-25T04:48:15;0.93;;;0.93;;
4365;SDS011;2196;47.422;9.656;2022-11-25T04:50:42;1.00;;;1.00;;
4365;SDS011;2196;47.422;9.656;2022-11-25T04:53:09;1.13;;;1.03;;
4365;SDS011;2196;47.422;9.656;2022-11-25T04:55:36;1.53;;;0.93;;
4365;SDS011;2196;47.422;9.656;2022-11-25T04:58:05;0.80;;;0.80;;
4365;SDS011;2196;47.422;9.656;2022-11-25T05:00:32;1.57;;;1.10;;
4365;SDS011;2196;47.422;9.656;2022-11-25T05:02:58;0.83;;;0.83;;
4365;SDS011;2196;47.422;9.656;2022-11-25T05:05:25;1.13;;;1.10;;
4365;SDS011;2196;47.422;9.656;2022-11-25T05:07:52;1.00;;;1.00;;
4365;SDS011;2196;47.422;9.656;2022-11-25T05:10:19;1.13;;;1.03;;
4365;SDS011;2196;47.422;9.656;2022-11-25T05:12:46;1.47;;;1.27;;
4365;SDS011;2196;47.422;9.656;2022-11-25T05:15:14;0.93;;;0.83;;
4365;SDS011;2196;47.422;9.656;2022-11-25T05:17:41;0.80;;;0.80;;
4365;SDS011;2196;47.422;9.656;2022-11-25T05:20:08;1.70;;;1.20;;
4365;SDS011;2196;47.422;9.656;2022-11-25T05:22:36;1.40;;;1.30;;
4365;SDS011;2196;47.422;9.656;2022-11-25T05:25:03;2.03;;;1.13;;
4365;SDS011;2196;47.422;9.656;2022-11-25T05:27:31;4.27;;;2.17;;
4365;SDS011;2196;47.422;9.656;2022-11-25T05:29:58;2.40;;;1.30;;
4365;SDS011;2196;47.422;9.656;2022-11-25T05:32:26;1.50;;;1.37;;
4365;SDS011;2196;47.422;9.656;2022-11-25T05:34:54;1.50;;;1.40;;
4365;SDS011;2196;47.422;9.656;2022-11-25T05:37:21;1.23;;;1.20;;
4365;SDS011;2196;47.422;9.656;2022-11-25T05:39:48;1.00;;;0.80;;
4365;SDS011;2196;47.422;9.656;2022-11-25T05:42:15;2.03;;;1.13;;
4365;SDS011;2196;47.422;9.656;2022-11-25T05:44:42;1.80;;;1.40;;
4365;SDS011;2196;47.422;9.656;2022-11-25T05:47:09;3.13;;;1.30;;
4365;SDS011;2196;47.422;9.656;2022-11-25T05:49:37;2.17;;;1.30;;
4365;SDS011;2196;47.422;9.656;2022-11-25T05:52:04;4.27;;;1.20;;
4365;SDS011;2196;47.422;9.656;2022-11-25T05:54:33;1.53;;;1.23;;
4365;SDS011;2196;47.422;9.656;2022-11-25T05:57:00;1.43;;;1.23;;
4365;SDS011;2196;47.422;9.656;2022-11-25T05:59:27;1.00;;;0.90;;
4365;SDS011;2196;47.422;9.656;2022-11-25T06:01:57;1.70;;;0.80;;
4365;SDS011;2196;47.422;9.656;2022-11-25T06:04:26;0.77;;;0.57;;
4365;SDS011;2196;47.422;9.656;2022-11-25T06:06:54;0.83;;;0.60;;
4365;SDS011;2196;47.422;9.656;2022-11-25T06:09:21;0.50;;;0.40;;
4365;SDS011;2196;47.422;9.656;2022-11-25T06:11:48;0.30;;;0.30;;
4365;SDS011;2196;47.422;9.656;2022-11-25T06:14:15;1.23;;;0.20;;
4365;SDS011;2196;47.422;9.656;2022-11-25T06:16:42;1.00;;;0.20;;
4365;SDS011;2196;47.422;9.656;2022-11-25T06:19:09;0.20;;;0.20;;
4365;SDS011;2196;47.422;9.656;2022-11-25T06:21:36;1.00;;;0.50;;
4365;SDS011;2196;47.422;9.656;2022-11-25T06:24:05;0.33;;;0.23;;
4365;SDS011;2196;47.422;9.656;2022-11-25T06:26:32;0.97;;;0.40;;
4365;SDS011;2196;47.422;9.656;2022-11-25T06:28:59;1.17;;;0.70;;
4365;SDS011;2196;47.422;9.656;2022-11-25T06:31:26;1.40;;;0.53;;
4365;SDS011;2196;47.422;9.656;2022-11-25T06:33:53;0.70;;;0.60;;
4365;SDS011;2196;47.422;9.656;2022-11-25T06:36:21;2.77;;;1.57;;
4365;SDS011;2196;47.422;9.656;2022-11-25T06:38:50;6.43;;;3.20;;
4365;SDS011;2196;47.422;9.656;2022-11-25T06:41:19;3.90;;;3.00;;
4365;SDS011;2196;47.422;9.656;2022-11-25T06:43:47;5.43;;;3.30;;
4365;SDS011;2196;47.422;9.656;2022-11-25T06:46:15;3.33;;;2.17;;
4365;SDS011;2196;47.422;9.656;2022-11-25T06:48:43;3.70;;;1.43;;
4365;SDS011;2196;47.422;9.656;2022-11-25T06:51:11;2.10;;;1.20;;
4365;SDS011;2196;47.422;9.656;2022-11-25T06:53:39;1.17;;;1.07;;
4365;SDS011;2196;47.422;9.656;2022-11-25T06:56:07;1.67;;;1.53;;
4365;SDS011;2196;47.422;9.656;2022-11-25T06:58:38;7.67;;;2.07;;
4365;SDS011;2196;47.422;9.656;2022-11-25T07:01:06;1.47;;;1.37;;
4365;SDS011;2196;47.422;9.656;2022-11-25T07:03:37;2.10;;;2.00;;
4365;SDS011;2196;47.422;9.656;2022-11-25T07:06:04;5.20;;;1.57;;
4365;SDS011;2196;47.422;9.656;2022-11-25T07:08:32;3.17;;;2.47;;
4365;SDS011;2196;47.422;9.656;2022-11-25T07:11:01;3.77;;;2.13;;
4365;SDS011;2196;47.422;9.656;2022-11-25T07:13:30;2.00;;;1.77;;
4365;SDS011;2196;47.422;9.656;2022-11-25T07:16:00;2.17;;;2.07;;
4365;SDS011;2196;47.422;9.656;2022-11-25T07:18:29;2.37;;;1.33;;
4365;SDS011;2196;47.422;9.656;2022-11-25T07:21:00;2.23;;;1.47;;
4365;SDS011;2196;47.422;9.656;2022-11-25T07:23:29;0.90;;;0.90;;
4365;SDS011;2196;47.422;9.656;2022-11-25T07:26:00;1.60;;;0.83;;
4365;SDS011;2196;47.422;9.656;2022-11-25T07:28:28;0.83;;;0.80;;
4365;SDS011;2196;47.422;9.656;2022-11-25T07:30:55;1.23;;;0.90;;
4365;SDS011;2196;47.422;9.656;2022-11-25T07:33:30;0.37;;;0.37;;
4365;SDS011;2196;47.422;9.656;2022-11-25T07:35:59;5.00;;;0.70;;
4365;SDS011;2196;47.422;9.656;2022-11-25T07:38:27;0.77;;;0.77;;
4365;SDS011;2196;47.422;9.656;2022-11-25T07:40:54;2.07;;;1.00;;
4365;SDS011;2196;47.422;9.656;2022-11-25T07:43:21;3.93;;;1.03;;
4365;SDS011;2196;47.422;9.656;2022-11-25T07:45:48;2.27;;;1.00;;
4365;SDS011;2196;47.422;9.656;2022-11-25T07:48:17;1.80;;;0.90;;
4365;SDS011;2196;47.422;9.656;2022-11-25T07:50:44;1.97;;;1.90;;
4365;SDS011;2196;47.422;9.656;2022-11-25T07:53:14;0.83;;;0.60;;
4365;SDS011;2196;47.422;9.656;2022-11-25T07:55:41;0.73;;;0.70;;
4365;SDS011;2196;47.422;9.656;2022-11-25T07:58:08;0.63;;;0.63;;
4365;SDS011;2196;47.422;9.656;2022-11-25T08:00:35;0.83;;;0.70;;
4365;SDS011;2196;47.422;9.656;2022-11-25T08:03:02;1.10;;;0.60;;
4365;SDS011;2196;47.422;9.656;2022-11-25T08:05:30;0.90;;;0.80;;
4365;SDS011;2196;47.422;9.656;2022-11-25T08:07:58;0.30;;;0.30;;
4365;SDS011;2196;47.422;9.656;2022-11-25T08:10:25;1.03;;;0.60;;
4365;SDS011;2196;47.422;9.656;2022-11-25T08:12:52;0.93;;;0.93;;
4365;SDS011;2196;47.422;9.656;2022-11-25T08:15:19;1.93;;;1.80;;
4365;SDS011;2196;47.422;9.656;2022-11-25T08:17:46;1.10;;;1.00;;
4365;SDS011;2196;47.422;9.656;2022-11-25T08:20:16;1.63;;;1.27;;
4365;SDS011;2196;47.422;9.656;2022-11-25T08:22:44;1.33;;;1.23;;
4365;SDS011;2196;47.422;9.656;2022-11-25T08:25:11;1.80;;;1.40;;
4365;SDS011;2196;47.422;9.656;2022-11-25T08:27:38;1.23;;;1.23;;
4365;SDS011;2196;47.422;9.656;2022-11-25T08:30:06;2.50;;;1.57;;
4365;SDS011;2196;47.422;9.656;2022-11-25T08:32:35;1.40;;;1.30;;
4365;SDS011;2196;47.422;9.656;2022-11-25T08:35:03;6.10;;;4.17;;
4365;SDS011;2196;47.422;9.656;2022-11-25T08:37:31;3.23;;;2.93;;
4365;SDS011;2196;47.422;9.656;2022-11-25T08:40:00;2.37;;;1.73;;
4365;SDS011;2196;47.422;9.656;2022-11-25T08:42:27;3.17;;;2.93;;
4365;SDS011;2196;47.422;9.656;2022-11-25T08:44:54;2.83;;;1.30;;
4365;SDS011;2196;47.422;9.656;2022-11-25T08:47:22;6.57;;;1.90;;
4365;SDS011;2196;47.422;9.656;2022-11-25T08:49:50;1.00;;;1.00;;
4365;SDS011;2196;47.422;9.656;2022-11-25T08:52:17;2.90;;;1.57;;
4365;SDS011;2196;47.422;9.656;2022-11-25T08:54:44;3.47;;;0.90;;
4365;SDS011;2196;47.422;9.656;2022-11-25T08:57:12;0.90;;;0.80;;
4365;SDS011;2196;47.422;9.656;2022-11-25T08:59:40;1.43;;;0.90;;
4365;SDS011;2196;47.422;9.656;2022-11-25T09:02:08;3.83;;;1.60;;
4365;SDS011;2196;47.422;9.656;2022-11-25T09:04:37;1.40;;;1.30;;
4365;SDS011;2196;47.422;9.656;2022-11-25T09:07:04;1.10;;;1.00;;
4365;SDS011;2196;47.422;9.656;2022-11-25T09:09:33;3.70;;;0.60;;
4365;SDS011;2196;47.422;9.656;2022-11-25T09:12:00;1.07;;;0.83;;
4365;SDS011;2196;47.422;9.656;2022-11-25T09:14:31;1.83;;;0.80;;
4365;SDS011;2196;47.422;9.656;2022-11-25T09:16:58;1.87;;;0.60;;
4365;SDS011;2196;47.422;9.656;2022-11-25T09:19:28;1.17;;;1.17;;
4365;SDS011;2196;47.422;9.656;2022-11-25T09:21:55;1.30;;;1.20;;
4365;SDS011;2196;47.422;9.656;2022-11-25T09:24:21;0.93;;;0.80;;
4365;SDS011;2196;47.422;9.656;2022-11-25T09:26:49;0.83;;;0.53;;
4365;SDS011;2196;47.422;9.656;2022-11-25T09:29:16;0.70;;;0.70;;
4365;SDS011;2196;47.422;9.656;2022-11-25T09:31:44;4.07;;;2.93;;
4365;SDS011;2196;47.422;9.656;2022-11-25T09:34:11;0.73;;;0.73;;
4365;SDS011;2196;47.422;9.656;2022-11-25T09:36:38;0.50;;;0.50;;
4365;SDS011;2196;47.422;9.656;2022-11-25T09:39:05;1.60;;;0.80;;
4365;SDS011;2196;47.422;9.656;2022-11-25T09:41:37;2.00;;;0.77;;
4365;SDS011;2196;47.422;9.656;2022-11-25T09:44:37;1.57;;;0.40;;
4365;SDS011;2196;47.422;9.656;2022-11-25T09:47:32;2.07;;;0.50;;
4365;SDS011;2196;47.422;9.656;2022-11-25T09:50:09;3.57;;;0.40;;
4365;SDS011;2196;47.422;9.656;2022-11-25T09:52:44;1.07;;;0.20;;
4365;SDS011;2196;47.422;9.656;2022-11-25T09:55:19;1.73;;;0.50;;
4365;SDS011;2196;47.422;9.656;2022-11-25T09:58:00;0.30;;;0.30;;
4365;SDS011;2196;47.422;9.656;2022-11-25T10:00:33;0.80;;;0.50;;
4365;SDS011;2196;47.422;9.656;2022-11-25T10:03:05;0.83;;;0.30;;
4365;SDS011;2196;47.422;9.656;2022-11-25T10:05:41;1.40;;;0.43;;
4365;SDS011;2196;47.422;9.656;2022-11-25T10:08:12;1.93;;;0.30;;
4365;SDS011;2196;47.422;9.656;2022-11-25T10:10:43;1.80;;;0.60;;
4365;SDS011;2196;47.422;9.656;2022-11-25T10:13:14;1.43;;;0.60;;
4365;SDS011;2196;47.422;9.656;2022-11-25T10:15:45;0.80;;;0.50;;
4365;SDS011;2196;47.422;9.656;2022-11-25T10:18:18;1.07;;;0.50;;
4365;SDS011;2196;47.422;9.656;2022-11-25T10:20:50;2.90;;;0.60;;
4365;SDS011;2196;47.422;9.656;2022-11-25T10:23:19;0.60;;;0.60;;
4365;SDS011;2196;47.422;9.656;2022-11-25T10:25:50;3.73;;;0.70;;
4365;SDS011;2196;47.422;9.656;2022-11-25T10:28:22;0.53;;;0.53;;
4365;SDS011;2196;47.422;9.656;2022-11-25T10:30:51;4.50;;;4.07;;
4365;SDS011;2196;47.422;9.656;2022-11-25T10:33:26;2.40;;;1.27;;
4365;SDS011;2196;47.422;9.656;2022-11-25T10:35:56;1.23;;;0.50;;
4365;SDS011;2196;47.422;9.656;2022-11-25T10:38:33;2.87;;;1.47;;
4365;SDS011;2196;47.422;9.656;2022-11-25T10:41:05;2.43;;;0.80;;
4365;SDS011;2196;47.422;9.656;2022-11-25T10:43:32;1.77;;;0.83;;
4365;SDS011;2196;47.422;9.656;2022-11-25T10:46:02;1.00;;;0.67;;
4365;SDS011;2196;47.422;9.656;2022-11-25T10:48:48;0.97;;;0.50;;
4365;SDS011;2196;47.422;9.656;2022-11-25T10:51:30;3.93;;;0.80;;
4365;SDS011;2196;47.422;9.656;2022-11-25T10:54:09;1.07;;;0.50;;
4365;SDS011;2196;47.422;9.656;2022-11-25T10:56:41;4.50;;;1.00;;
4365;SDS011;2196;47.422;9.656;2022-11-25T10:59:13;1.43;;;0.90;;
4365;SDS011;2196;47.422;9.656;2022-11-25T11:01:47;0.60;;;0.60;;
4365;SDS011;2196;47.422;9.656;2022-11-25T11:04:17;1.88;;;0.75;;
4365;SDS011;2196;47.422;9.656;2022-11-25T11:06:47;2.53;;;0.90;;
4365;SDS011;2196;47.422;9.656;2022-11-25T11:09:34;1.03;;;0.70;;
4365;SDS011;2196;47.422;9.656;2022-11-25T11:12:06;0.73;;;0.50;;
4365;SDS011;2196;47.422;9.656;2022-11-25T11:14:45;0.70;;;0.70;;
4365;SDS011;2196;47.422;9.656;2022-11-25T11:17:31;0.70;;;0.70;;
4365;SDS011;2196;47.422;9.656;2022-11-25T11:20:03;1.57;;;0.77;;
4365;SDS011;2196;47.422;9.656;2022-11-25T11:22:44;1.83;;;0.83;;
4365;SDS011;2196;47.422;9.656;2022-11-25T11:25:24;1.57;;;1.00;;
4365;SDS011;2196;47.422;9.656;2022-11-25T11:27:53;0.80;;;0.73;;
4365;SDS011;2196;47.422;9.656;2022-11-25T11:30:21;1.80;;;1.57;;
4365;SDS011;2196;47.422;9.656;2022-11-25T11:32:57;4.10;;;0.97;;
4365;SDS011;2196;47.422;9.656;2022-11-25T11:35:40;1.57;;;0.80;;
4365;SDS011;2196;47.422;9.656;2022-11-25T11:38:22;1.13;;;1.10;;
4365;SDS011;2196;47.422;9.656;2022-11-25T11:40:56;2.77;;;1.77;;
4365;SDS011;2196;47.422;9.656;2022-11-25T11:43:38;4.87;;;3.80;;
4365;SDS011;2196;47.422;9.656;2022-11-25T11:46:14;3.13;;;1.13;;
4365;SDS011;2196;47.422;9.656;2022-11-25T11:48:53;1.53;;;0.90;;
4365;SDS011;2196;47.422;9.656;2022-11-25T11:51:31;3.00;;;0.67;;
4365;SDS011;2196;47.422;9.656;2022-11-25T11:54:05;2.27;;;1.90;;
4365;SDS011;2196;47.422;9.656;2022-11-25T11:56:37;4.37;;;2.30;;
4365;SDS011;2196;47.422;9.656;2022-11-25T11:59:19;7.60;;;4.03;;
4365;SDS011;2196;47.422;9.656;2022-11-25T12:02:03;4.00;;;3.77;;
4365;SDS011;2196;47.422;9.656;2022-11-25T12:04:42;5.23;;;3.43;;
4365;SDS011;2196;47.422;9.656;2022-11-25T12:07:17;7.07;;;4.00;;
4365;SDS011;2196;47.422;9.656;2022-11-25T12:09:48;5.07;;;4.07;;
4365;SDS011;2196;47.422;9.656;2022-11-25T12:12:21;5.47;;;4.23;;
4365;SDS011;2196;47.422;9.656;2022-11-25T12:15:00;6.93;;;4.10;;
4365;SDS011;2196;47.422;9.656;2022-11-25T12:17:33;4.43;;;4.13;;
4365;SDS011;2196;47.422;9.656;2022-11-25T12:20:12;5.00;;;4.60;;
4365;SDS011;2196;47.422;9.656;2022-11-25T12:22:45;5.67;;;4.03;;
4365;SDS011;2196;47.422;9.656;2022-11-25T12:25:16;7.83;;;4.30;;
4365;SDS011;2196;47.422;9.656;2022-11-25T12:27:49;4.73;;;4.13;;
4365;SDS011;2196;47.422;9.656;2022-11-25T12:30:19;4.67;;;4.23;;
4365;SDS011;2196;47.422;9.656;2022-11-25T12:32:50;3.73;;;3.53;;
4365;SDS011;2196;47.422;9.656;2022-11-25T12:35:24;6.93;;;4.33;;
4365;SDS011;2196;47.422;9.656;2022-11-25T12:38:04;4.30;;;3.83;;
4365;SDS011;2196;47.422;9.656;2022-11-25T12:40:41;5.90;;;5.03;;
4365;SDS011;2196;47.422;9.656;2022-11-25T12:43:16;4.43;;;4.10;;
4365;SDS011;2196;47.422;9.656;2022-11-25T12:45:53;6.67;;;4.30;;
4365;SDS011;2196;47.422;9.656;2022-11-25T12:48:28;6.50;;;4.43;;
4365;SDS011;2196;47.422;9.656;2022-11-25T12:50:58;4.97;;;4.30;;
4365;SDS011;2196;47.422;9.656;2022-11-25T12:53:31;5.70;;;4.10;;
4365;SDS011;2196;47.422;9.656;2022-11-25T12:56:10;5.43;;;4.33;;
4365;SDS011;2196;47.422;9.656;2022-11-25T12:58:52;4.23;;;3.83;;
4365;SDS011;2196;47.422;9.656;2022-11-25T13:01:43;7.77;;;4.70;;
4365;SDS011;2196;47.422;9.656;2022-11-25T13:04:34;4.13;;;3.80;;
4365;SDS011;2196;47.422;9.656;2022-11-25T13:07:24;5.50;;;3.83;;
4365;SDS011;2196;47.422;9.656;2022-11-25T13:10:05;7.77;;;4.60;;
4365;SDS011;2196;47.422;9.656;2022-11-25T13:12:57;6.73;;;3.53;;
4365;SDS011;2196;47.422;9.656;2022-11-25T13:15:34;5.20;;;2.87;;
4365;SDS011;2196;47.422;9.656;2022-11-25T13:18:07;3.37;;;3.17;;
4365;SDS011;2196;47.422;9.656;2022-11-25T13:20:41;3.97;;;3.77;;
4365;SDS011;2196;47.422;9.656;2022-11-25T13:32:31;4.10;;;3.60;;
4365;SDS011;2196;47.422;9.656;2022-11-25T13:38:35;4.17;;;2.77;;
4365;SDS011;2196;47.422;9.656;2022-11-25T13:43:52;4.17;;;3.10;;
4365;SDS011;2196;47.422;9.656;2022-11-25T13:46:26;2.70;;;2.50;;
4365;SDS011;2196;47.422;9.656;2022-11-25T13:48:59;2.87;;;2.60;;
4365;SDS011;2196;47.422;9.656;2022-11-25T13:51:26;2.77;;;2.47;;
4365;SDS011;2196;47.422;9.656;2022-11-25T13:53:54;2.23;;;2.17;;
4365;SDS011;2196;47.422;9.656;2022-11-25T13:56:25;3.20;;;2.77;;
4365;SDS011;2196;47.422;9.656;2022-11-25T14:04:51;3.47;;;3.17;;
4365;SDS011;2196;47.422;9.656;2022-11-25T14:07:25;8.83;;;5.77;;
4365;SDS011;2196;47.422;9.656;2022-11-25T14:13:06;16.00;;;8.40;;
4365;SDS011;2196;47.422;9.656;2022-11-25T14:15:52;19.80;;;11.33;;
4365;SDS011;2196;47.422;9.656;2022-11-25T14:18:40;10.77;;;7.70;;
4365;SDS011;2196;47.422;9.656;2022-11-25T14:21:41;5.57;;;4.57;;
4365;SDS011;2196;47.422;9.656;2022-11-25T14:24:18;7.87;;;5.03;;
4365;SDS011;2196;47.422;9.656;2022-11-25T14:26:53;6.40;;;5.80;;
4365;SDS011;2196;47.422;9.656;2022-11-25T14:29:23;7.87;;;3.77;;
4365;SDS011;2196;47.422;9.656;2022-11-25T14:32:00;4.43;;;3.70;;
4365;SDS011;2196;47.422;9.656;2022-11-25T14:34:31;12.13;;;8.60;;
4365;SDS011;2196;47.422;9.656;2022-11-25T14:37:04;7.90;;;6.53;;
4365;SDS011;2196;47.422;9.656;2022-11-25T14:39:38;3.83;;;3.40;;
4365;SDS011;2196;47.422;9.656;2022-11-25T14:42:11;6.03;;;3.77;;
4365;SDS011;2196;47.422;9.656;2022-11-25T14:44:44;5.63;;;3.43;;
4365;SDS011;2196;47.422;9.656;2022-11-25T14:47:14;4.40;;;3.57;;
4365;SDS011;2196;47.422;9.656;2022-11-25T14:49:47;4.87;;;3.40;;
4365;SDS011;2196;47.422;9.656;2022-11-25T14:52:20;4.83;;;4.43;;
4365;SDS011;2196;47.422;9.656;2022-11-25T14:54:49;11.53;;;6.97;;
4365;SDS011;2196;47.422;9.656;2022-11-25T14:57:20;6.83;;;5.70;;
4365;SDS011;2196;47.422;9.656;2022-11-25T14:59:48;9.00;;;5.43;;
4365;SDS011;2196;47.422;9.656;2022-11-25T15:02:25;6.93;;;5.00;;
4365;SDS011;2196;47.422;9.656;2022-11-25T15:04:59;3.83;;;3.57;;
4365;SDS011;2196;47.422;9.656;2022-11-25T15:07:27;8.57;;;3.93;;
4365;SDS011;2196;47.422;9.656;2022-11-25T15:09:54;4.10;;;3.03;;
4365;SDS011;2196;47.422;9.656;2022-11-25T15:12:22;3.33;;;3.10;;
4365;SDS011;2196;47.422;9.656;2022-11-25T15:14:54;4.40;;;3.80;;
4365;SDS011;2196;47.422;9.656;2022-11-25T15:17:25;7.67;;;4.30;;
4365;SDS011;2196;47.422;9.656;2022-11-25T15:19:54;2.70;;;2.33;;
4365;SDS011;2196;47.422;9.656;2022-11-25T15:22:23;3.40;;;3.10;;
4365;SDS011;2196;47.422;9.656;2022-11-25T15:24:51;4.87;;;3.43;;
4365;SDS011;2196;47.422;9.656;2022-11-25T15:27:20;5.37;;;3.37;;
4365;SDS011;2196;47.422;9.656;2022-11-25T15:29:50;4.50;;;4.10;;
4365;SDS011;2196;47.422;9.656;2022-11-25T15:32:19;12.37;;;6.93;;
4365;SDS011;2196;47.422;9.656;2022-11-25T15:34:51;6.43;;;4.80;;
4365;SDS011;2196;47.422;9.656;2022-11-25T15:37:20;10.53;;;5.00;;
4365;SDS011;2196;47.422;9.656;2022-11-25T15:39:48;7.77;;;4.67;;
4365;SDS011;2196;47.422;9.656;2022-11-25T15:42:16;8.97;;;4.90;;
4365;SDS011;2196;47.422;9.656;2022-11-25T15:44:46;10.77;;;3.90;;
4365;SDS011;2196;47.422;9.656;2022-11-25T15:47:17;3.83;;;3.43;;
4365;SDS011;2196;47.422;9.656;2022-11-25T15:49:49;4.13;;;3.73;;
4365;SDS011;2196;47.422;9.656;2022-11-25T15:52:23;5.53;;;4.73;;
4365;SDS011;2196;47.422;9.656;2022-11-25T15:54:53;4.87;;;3.93;;
4365;SDS011;2196;47.422;9.656;2022-11-25T15:57:26;5.57;;;4.37;;
4365;SDS011;2196;47.422;9.656;2022-11-25T16:02:51;4.77;;;2.70;;